sensor_id;sensor_type;location;lat;lon;timestamp;pressure;altitude;pressure_sealevel;temperature;humidity
4814;BME280;15375;48.540;9.268;2023-04-23T00:00:26;96723.25;;;13.80;88.83
4814;BME280;15375;48.540;9.268;2023-04-23T00:02:53;96724.16;;;13.77;90.75
4814;BME280;15375;48.540;9.268;2023-04-23T00:05:18;96734.78;;;13.75;89.79
4814;BME280;15375;48.540;9.268;2023-04-23T00:07:44;96729.78;;;13.73;90.36
4814;BME280;15375;48.540;9.268;2023-04-23T00:10:10;96732.34;;;13.68;89.89
4814;BME280;15375;48.540;9.268;2023-04-23T00:12:36;96701.22;;;13.43;88.98
4814;BME280;15375;48.540;9.268;2023-04-23T00:15:02;96729.53;;;13.50;89.78
4814;BME280;15375;48.540;9.268;2023-04-23T00:17:28;96708.81;;;13.39;89.53
4814;BME280;15375;48.540;9.268;2023-04-23T00:19:54;96703.00;;;13.37;87.95
4814;BME280;15375;48.540;9.268;2023-04-23T00:22:19;96713.09;;;13.50;88.30
4814;BME280;15375;48.540;9.268;2023-04-23T00:24:46;96726.53;;;13.57;87.80
4814;BME280;15375;48.540;9.268;2023-04-23T00:27:11;96717.38;;;13.51;86.92
4814;BME280;15375;48.540;9.268;2023-04-23T00:29:37;96684.44;;;13.32;86.51
4814;BME280;15375;48.540;9.268;2023-04-23T00:32:02;96721.22;;;13.62;85.38
4814;BME280;15375;48.540;9.268;2023-04-23T00:34:28;96687.53;;;13.43;84.74
4814;BME280;15375;48.540;9.268;2023-04-23T00:36:54;96733.13;;;13.68;85.00
4814;BME280;15375;48.540;9.268;2023-04-23T00:39:19;96705.06;;;13.55;83.85
4814;BME280;15375;48.540;9.268;2023-04-23T00:41:45;96716.53;;;13.72;82.69
4814;BME280;15375;48.540;9.268;2023-04-23T00:44:10;96722.03;;;13.72;83.98
4814;BME280;15375;48.540;9.268;2023-04-23T00:46:37;96729.31;;;13.75;83.46
4814;BME280;15375;48.540;9.268;2023-04-23T00:49:02;96734.53;;;13.82;83.03
4814;BME280;15375;48.540;9.268;2023-04-23T00:51:28;96729.97;;;13.79;82.63
4814;BME280;15375;48.540;9.268;2023-04-23T00:53:55;96723.41;;;13.76;82.89
4814;BME280;15375;48.540;9.268;2023-04-23T00:56:21;96724.16;;;13.77;82.99
4814;BME280;15375;48.540;9.268;2023-04-23T00:58:51;96733.91;;;13.78;82.87
4814;BME280;15375;48.540;9.268;2023-04-23T01:01:17;96720.19;;;13.78;83.39
4814;BME280;15375;48.540;9.268;2023-04-23T01:03:47;96714.25;;;13.70;83.98
4814;BME280;15375;48.540;9.268;2023-04-23T01:06:14;96728.13;;;13.76;83.94
4814;BME280;15375;48.540;9.268;2023-04-23T01:08:41;96723.50;;;13.64;85.79
4814;BME280;15375;48.540;9.268;2023-04-23T01:11:08;96746.72;;;13.81;87.09
4814;BME280;15375;48.540;9.268;2023-04-23T01:13:34;96723.44;;;13.46;90.06
4814;BME280;15375;48.540;9.268;2023-04-23T01:16:00;96739.16;;;13.54;90.16
4814;BME280;15375;48.540;9.268;2023-04-23T01:18:26;96733.19;;;13.47;92.79
4814;BME280;15375;48.540;9.268;2023-04-23T01:20:52;96747.31;;;13.45;93.17
4814;BME280;15375;48.540;9.268;2023-04-23T01:23:18;96753.84;;;13.38;94.50
4814;BME280;15375;48.540;9.268;2023-04-23T01:25:44;96751.69;;;13.33;94.68
4814;BME280;15375;48.540;9.268;2023-04-23T01:28:10;96741.91;;;13.23;95.29
4814;BME280;15375;48.540;9.268;2023-04-23T01:30:41;96742.50;;;13.18;97.45
4814;BME280;15375;48.540;9.268;2023-04-23T01:33:06;96751.91;;;13.17;98.87
4814;BME280;15375;48.540;9.268;2023-04-23T01:35:33;96764.72;;;13.20;99.06
4814;BME280;15375;48.540;9.268;2023-04-23T01:38:01;96783.88;;;13.20;99.94
4814;BME280;15375;48.540;9.268;2023-04-23T01:40:27;96759.66;;;12.97;100.00
4814;BME280;15375;48.540;9.268;2023-04-23T01:42:53;96741.81;;;12.84;100.00
4814;BME280;15375;48.540;9.268;2023-04-23T01:45:18;96757.31;;;12.87;100.00
4814;BME280;15375;48.540;9.268;2023-04-23T01:47:44;96759.16;;;12.90;100.00
4814;BME280;15375;48.540;9.268;2023-04-23T01:50:10;96764.00;;;12.86;100.00
4814;BME280;15375;48.540;9.268;2023-04-23T01:52:35;96774.81;;;12.89;100.00
4814;BME280;15375;48.540;9.268;2023-04-23T01:55:00;96764.94;;;12.70;100.00
4814;BME280;15375;48.540;9.268;2023-04-23T01:57:31;96753.34;;;12.44;100.00
4814;BME280;15375;48.540;9.268;2023-04-23T02:00:03;96772.75;;;12.59;100.00
4814;BME280;15375;48.540;9.268;2023-04-23T02:02:33;96787.28;;;12.68;100.00
4814;BME280;15375;48.540;9.268;2023-04-23T02:05:00;96768.97;;;12.44;100.00
4814;BME280;15375;48.540;9.268;2023-04-23T02:07:29;96779.72;;;12.51;100.00
4814;BME280;15375;48.540;9.268;2023-04-23T02:09:55;96788.66;;;12.51;100.00
4814;BME280;15375;48.540;9.268;2023-04-23T02:12:20;96774.84;;;12.33;100.00
4814;BME280;15375;48.540;9.268;2023-04-23T02:14:46;96771.34;;;12.33;100.00
4814;BME280;15375;48.540;9.268;2023-04-23T02:17:11;96794.81;;;12.43;100.00
4814;BME280;15375;48.540;9.268;2023-04-23T02:19:36;96781.91;;;12.43;100.00
4814;BME280;15375;48.540;9.268;2023-04-23T02:22:02;96778.44;;;12.30;100.00
4814;BME280;15375;48.540;9.268;2023-04-23T02:24:27;96797.44;;;12.34;100.00
4814;BME280;15375;48.540;9.268;2023-04-23T02:26:52;96789.63;;;12.23;100.00
4814;BME280;15375;48.540;9.268;2023-04-23T02:29:18;96795.09;;;12.23;100.00
4814;BME280;15375;48.540;9.268;2023-04-23T02:31:43;96801.97;;;12.28;100.00
4814;BME280;15375;48.540;9.268;2023-04-23T02:34:09;96793.44;;;12.26;100.00
4814;BME280;15375;48.540;9.268;2023-04-23T02:36:34;96792.38;;;12.23;100.00
4814;BME280;15375;48.540;9.268;2023-04-23T02:39:00;96804.91;;;12.33;100.00
4814;BME280;15375;48.540;9.268;2023-04-23T02:41:26;96785.81;;;12.21;100.00
4814;BME280;15375;48.540;9.268;2023-04-23T02:43:51;96774.13;;;12.07;100.00
4814;BME280;15375;48.540;9.268;2023-04-23T02:46:16;96801.22;;;12.14;100.00
4814;BME280;15375;48.540;9.268;2023-04-23T02:48:42;96810.31;;;12.11;100.00
4814;BME280;15375;48.540;9.268;2023-04-23T02:51:10;96804.75;;;12.02;100.00
4814;BME280;15375;48.540;9.268;2023-04-23T02:53:36;96785.63;;;11.90;100.00
4814;BME280;15375;48.540;9.268;2023-04-23T02:56:01;96793.81;;;12.02;100.00
4814;BME280;15375;48.540;9.268;2023-04-23T02:58:27;96809.34;;;12.05;100.00
4814;BME280;15375;48.540;9.268;2023-04-23T03:00:52;96789.22;;;11.99;100.00
4814;BME280;15375;48.540;9.268;2023-04-23T03:03:18;96794.16;;;11.92;100.00
4814;BME280;15375;48.540;9.268;2023-04-23T03:05:43;96763.13;;;11.73;100.00
4814;BME280;15375;48.540;9.268;2023-04-23T03:08:09;96779.50;;;11.73;100.00
4814;BME280;15375;48.540;9.268;2023-04-23T03:10:34;96769.66;;;11.63;100.00
4814;BME280;15375;48.540;9.268;2023-04-23T03:13:00;96764.31;;;11.60;100.00
4814;BME280;15375;48.540;9.268;2023-04-23T03:15:25;96798.44;;;11.80;100.00
4814;BME280;15375;48.540;9.268;2023-04-23T03:17:51;96749.78;;;11.50;100.00
4814;BME280;15375;48.540;9.268;2023-04-23T03:20:18;96780.06;;;11.68;100.00
4814;BME280;15375;48.540;9.268;2023-04-23T03:22:43;96810.47;;;11.70;100.00
4814;BME280;15375;48.540;9.268;2023-04-23T03:25:10;96782.44;;;11.53;100.00
4814;BME280;15375;48.540;9.268;2023-04-23T03:27:35;96790.63;;;11.66;100.00
4814;BME280;15375;48.540;9.268;2023-04-23T03:30:01;96764.41;;;11.43;100.00
4814;BME280;15375;48.540;9.268;2023-04-23T03:32:26;96761.13;;;11.48;100.00
4814;BME280;15375;48.540;9.268;2023-04-23T03:34:51;96773.91;;;11.64;100.00
4814;BME280;15375;48.540;9.268;2023-04-23T03:37:17;96781.38;;;11.76;100.00
4814;BME280;15375;48.540;9.268;2023-04-23T03:39:42;96770.44;;;11.76;100.00
4814;BME280;15375;48.540;9.268;2023-04-23T03:42:07;96769.34;;;11.74;100.00
4814;BME280;15375;48.540;9.268;2023-04-23T03:44:33;96754.28;;;11.69;100.00
4814;BME280;15375;48.540;9.268;2023-04-23T03:46:58;96762.78;;;11.71;100.00
4814;BME280;15375;48.540;9.268;2023-04-23T03:49:25;96756.34;;;11.65;100.00
4814;BME280;15375;48.540;9.268;2023-04-23T03:51:50;96770.22;;;11.71;100.00
4814;BME280;15375;48.540;9.268;2023-04-23T03:54:16;96742.47;;;11.47;100.00
4814;BME280;15375;48.540;9.268;2023-04-23T03:56:41;96770.09;;;11.62;100.00
4814;BME280;15375;48.540;9.268;2023-04-23T03:59:06;96768.22;;;11.59;100.00
4814;BME280;15375;48.540;9.268;2023-04-23T04:01:32;96772.06;;;11.48;100.00
4814;BME280;15375;48.540;9.268;2023-04-23T04:04:00;96775.88;;;11.51;100.00
4814;BME280;15375;48.540;9.268;2023-04-23T04:06:25;96753.81;;;11.33;100.00
4814;BME280;15375;48.540;9.268;2023-04-23T04:08:51;96778.19;;;11.40;100.00
4814;BME280;15375;48.540;9.268;2023-04-23T04:11:16;96794.22;;;11.38;100.00
4814;BME280;15375;48.540;9.268;2023-04-23T04:13:41;96783.72;;;11.24;100.00
4814;BME280;15375;48.540;9.268;2023-04-23T04:16:07;96780.00;;;11.18;100.00
4814;BME280;15375;48.540;9.268;2023-04-23T04:18:32;96792.97;;;11.14;100.00
4814;BME280;15375;48.540;9.268;2023-04-23T04:20:58;96785.44;;;11.18;100.00
4814;BME280;15375;48.540;9.268;2023-04-23T04:23:23;96790.38;;;11.23;100.00
4814;BME280;15375;48.540;9.268;2023-04-23T04:25:48;96767.63;;;11.01;100.00
4814;BME280;15375;48.540;9.268;2023-04-23T04:28:15;96799.78;;;11.34;100.00
4814;BME280;15375;48.540;9.268;2023-04-23T04:30:41;96788.97;;;11.31;100.00
4814;BME280;15375;48.540;9.268;2023-04-23T04:33:06;96755.78;;;11.20;100.00
4814;BME280;15375;48.540;9.268;2023-04-23T04:35:33;96797.84;;;11.47;100.00
4814;BME280;15375;48.540;9.268;2023-04-23T04:37:58;96777.94;;;11.34;100.00
4814;BME280;15375;48.540;9.268;2023-04-23T04:40:25;96787.56;;;11.39;100.00
4814;BME280;15375;48.540;9.268;2023-04-23T04:42:50;96802.31;;;11.41;100.00
4814;BME280;15375;48.540;9.268;2023-04-23T04:45:17;96800.56;;;11.47;100.00
4814;BME280;15375;48.540;9.268;2023-04-23T04:47:42;96796.53;;;11.52;100.00
4814;BME280;15375;48.540;9.268;2023-04-23T04:50:23;96768.44;;;11.39;100.00
4814;BME280;15375;48.540;9.268;2023-04-23T04:52:48;96741.34;;;11.19;100.00
4814;BME280;15375;48.540;9.268;2023-04-23T04:55:14;96791.94;;;11.49;100.00
4814;BME280;15375;48.540;9.268;2023-04-23T04:57:39;96759.16;;;11.24;100.00
4814;BME280;15375;48.540;9.268;2023-04-23T05:00:24;96774.13;;;11.32;100.00
4814;BME280;15375;48.540;9.268;2023-04-23T05:02:52;96789.44;;;11.42;100.00
4814;BME280;15375;48.540;9.268;2023-04-23T05:05:19;96783.84;;;11.45;100.00
4814;BME280;15375;48.540;9.268;2023-04-23T05:07:44;96776.97;;;11.41;100.00
4814;BME280;15375;48.540;9.268;2023-04-23T05:10:10;96804.50;;;11.59;100.00
4814;BME280;15375;48.540;9.268;2023-04-23T05:12:36;96775.09;;;11.50;100.00
4814;BME280;15375;48.540;9.268;2023-04-23T05:15:09;96791.41;;;11.67;100.00
4814;BME280;15375;48.540;9.268;2023-04-23T05:17:35;96789.84;;;11.53;100.00
4814;BME280;15375;48.540;9.268;2023-04-23T05:20:01;96804.22;;;11.70;100.00
4814;BME280;15375;48.540;9.268;2023-04-23T05:22:27;96816.78;;;11.80;100.00
4814;BME280;15375;48.540;9.268;2023-04-23T05:24:52;96766.16;;;11.37;100.00
4814;BME280;15375;48.540;9.268;2023-04-23T05:27:18;96775.44;;;11.40;100.00
4814;BME280;15375;48.540;9.268;2023-04-23T05:29:49;96789.22;;;11.49;100.00
4814;BME280;15375;48.540;9.268;2023-04-23T05:32:14;96778.38;;;11.45;100.00
4814;BME280;15375;48.540;9.268;2023-04-23T05:34:39;96737.00;;;11.22;100.00
4814;BME280;15375;48.540;9.268;2023-04-23T05:37:05;96786.56;;;11.45;100.00
4814;BME280;15375;48.540;9.268;2023-04-23T05:39:30;96766.59;;;11.48;100.00
4814;BME280;15375;48.540;9.268;2023-04-23T05:41:56;96775.56;;;11.62;100.00
4814;BME280;15375;48.540;9.268;2023-04-23T05:44:22;96790.56;;;11.82;100.00
4814;BME280;15375;48.540;9.268;2023-04-23T05:46:47;96779.31;;;11.80;100.00
4814;BME280;15375;48.540;9.268;2023-04-23T05:49:13;96786.50;;;11.87;100.00
4814;BME280;15375;48.540;9.268;2023-04-23T05:51:38;96766.94;;;11.88;100.00
4814;BME280;15375;48.540;9.268;2023-04-23T05:54:04;96773.03;;;12.05;100.00
4814;BME280;15375;48.540;9.268;2023-04-23T05:56:29;96747.91;;;11.97;100.00
4814;BME280;15375;48.540;9.268;2023-04-23T05:59:01;96765.25;;;12.16;100.00
4814;BME280;15375;48.540;9.268;2023-04-23T06:01:26;96772.13;;;12.21;100.00
4814;BME280;15375;48.540;9.268;2023-04-23T06:03:51;96785.97;;;12.39;100.00
4814;BME280;15375;48.540;9.268;2023-04-23T06:06:17;96771.09;;;12.40;100.00
4814;BME280;15375;48.540;9.268;2023-04-23T06:08:42;96778.16;;;12.50;100.00
4814;BME280;15375;48.540;9.268;2023-04-23T06:11:08;96789.50;;;12.61;100.00
4814;BME280;15375;48.540;9.268;2023-04-23T06:13:34;96774.34;;;12.69;100.00
4814;BME280;15375;48.540;9.268;2023-04-23T06:16:05;96751.66;;;12.59;100.00
4814;BME280;15375;48.540;9.268;2023-04-23T06:18:31;96733.13;;;13.07;100.00
4814;BME280;15375;48.540;9.268;2023-04-23T06:20:57;96799.44;;;16.41;100.00
4814;BME280;15375;48.540;9.268;2023-04-23T06:23:22;96780.78;;;20.04;83.74
4814;BME280;15375;48.540;9.268;2023-04-23T06:25:47;96781.47;;;22.83;64.33
4814;BME280;15375;48.540;9.268;2023-04-23T06:28:13;96791.19;;;23.88;54.43
4814;BME280;15375;48.540;9.268;2023-04-23T06:30:38;96785.63;;;23.53;52.47
4814;BME280;15375;48.540;9.268;2023-04-23T06:33:03;96793.72;;;21.80;59.09
4814;BME280;15375;48.540;9.268;2023-04-23T06:35:29;96794.66;;;21.11;57.05
4814;BME280;15375;48.540;9.268;2023-04-23T06:37:55;96786.84;;;23.16;53.42
4814;BME280;15375;48.540;9.268;2023-04-23T06:40:20;96785.06;;;22.67;51.22
4814;BME280;15375;48.540;9.268;2023-04-23T06:42:45;96775.19;;;23.94;47.32
4814;BME280;15375;48.540;9.268;2023-04-23T06:45:11;96788.53;;;25.72;47.43
4814;BME280;15375;48.540;9.268;2023-04-23T06:47:37;96782.69;;;22.93;49.72
4814;BME280;15375;48.540;9.268;2023-04-23T06:50:03;96785.81;;;22.56;55.33
4814;BME280;15375;48.540;9.268;2023-04-23T06:52:29;96784.91;;;22.04;54.19
4814;BME280;15375;48.540;9.268;2023-04-23T06:54:55;96761.09;;;22.53;50.83
4814;BME280;15375;48.540;9.268;2023-04-23T06:57:20;96786.19;;;21.64;52.68
4814;BME280;15375;48.540;9.268;2023-04-23T06:59:46;96771.22;;;22.45;52.95
4814;BME280;15375;48.540;9.268;2023-04-23T07:02:11;96772.09;;;20.75;56.18
4814;BME280;15375;48.540;9.268;2023-04-23T07:04:36;96778.75;;;20.04;59.93
4814;BME280;15375;48.540;9.268;2023-04-23T07:07:02;96772.94;;;19.65;59.88
4814;BME280;15375;48.540;9.268;2023-04-23T07:09:30;96789.31;;;18.52;68.21
4814;BME280;15375;48.540;9.268;2023-04-23T07:11:56;96776.13;;;18.26;66.98
4814;BME280;15375;48.540;9.268;2023-04-23T07:14:33;96775.06;;;18.04;69.57
4814;BME280;15375;48.540;9.268;2023-04-23T07:16:58;96778.09;;;18.06;67.54
4814;BME280;15375;48.540;9.268;2023-04-23T07:19:24;96775.44;;;18.11;65.83
4814;BME280;15375;48.540;9.268;2023-04-23T07:21:49;96775.47;;;18.92;64.51
4814;BME280;15375;48.540;9.268;2023-04-23T07:24:15;96759.06;;;19.08;62.54
4814;BME280;15375;48.540;9.268;2023-04-23T07:26:40;96766.34;;;17.91;62.30
4814;BME280;15375;48.540;9.268;2023-04-23T07:29:06;96756.97;;;18.03;65.17
4814;BME280;15375;48.540;9.268;2023-04-23T07:31:34;96756.34;;;17.93;64.93
4814;BME280;15375;48.540;9.268;2023-04-23T07:34:00;96765.03;;;18.81;66.32
4814;BME280;15375;48.540;9.268;2023-04-23T07:36:25;96753.03;;;18.84;61.98
4814;BME280;15375;48.540;9.268;2023-04-23T07:38:51;96743.44;;;19.31;60.62
4814;BME280;15375;48.540;9.268;2023-04-23T07:41:17;96749.66;;;19.21;64.18
4814;BME280;15375;48.540;9.268;2023-04-23T07:43:42;96748.03;;;18.28;66.74
4814;BME280;15375;48.540;9.268;2023-04-23T07:46:08;96760.72;;;18.00;69.53
4814;BME280;15375;48.540;9.268;2023-04-23T07:48:33;96757.47;;;17.66;67.83
4814;BME280;15375;48.540;9.268;2023-04-23T07:50:59;96750.78;;;17.73;68.85
4814;BME280;15375;48.540;9.268;2023-04-23T07:53:25;96740.91;;;17.66;71.61
4814;BME280;15375;48.540;9.268;2023-04-23T07:55:55;96714.47;;;17.74;70.53
4814;BME280;15375;48.540;9.268;2023-04-23T07:58:22;96738.59;;;18.34;67.67
4814;BME280;15375;48.540;9.268;2023-04-23T08:00:47;96739.16;;;17.83;64.99
4814;BME280;15375;48.540;9.268;2023-04-23T08:03:13;96751.03;;;18.24;68.53
4814;BME280;15375;48.540;9.268;2023-04-23T08:05:38;96731.38;;;19.03;64.20
4814;BME280;15375;48.540;9.268;2023-04-23T08:08:05;96756.19;;;18.97;61.39
4814;BME280;15375;48.540;9.268;2023-04-23T08:10:31;96735.59;;;18.98;62.06
4814;BME280;15375;48.540;9.268;2023-04-23T08:12:56;96726.63;;;18.58;58.62
4814;BME280;15375;48.540;9.268;2023-04-23T08:15:21;96735.66;;;18.58;60.31
4814;BME280;15375;48.540;9.268;2023-04-23T08:17:47;96731.16;;;18.61;61.57
4814;BME280;15375;48.540;9.268;2023-04-23T08:20:12;96746.69;;;19.04;63.49
4814;BME280;15375;48.540;9.268;2023-04-23T08:22:37;96712.28;;;18.79;62.03
4814;BME280;15375;48.540;9.268;2023-04-23T08:25:03;96698.84;;;18.67;59.47
4814;BME280;15375;48.540;9.268;2023-04-23T08:27:29;96733.03;;;18.49;64.84
4814;BME280;15375;48.540;9.268;2023-04-23T08:29:54;96722.16;;;18.25;66.45
4814;BME280;15375;48.540;9.268;2023-04-23T08:32:20;96688.44;;;18.16;65.68
4814;BME280;15375;48.540;9.268;2023-04-23T08:34:45;96691.69;;;18.34;60.24
4814;BME280;15375;48.540;9.268;2023-04-23T08:37:11;96730.44;;;18.45;61.93
4814;BME280;15375;48.540;9.268;2023-04-23T08:39:36;96724.22;;;18.30;61.69
4814;BME280;15375;48.540;9.268;2023-04-23T08:42:10;96704.28;;;18.41;62.05
4814;BME280;15375;48.540;9.268;2023-04-23T08:44:40;96717.06;;;18.38;59.92
4814;BME280;15375;48.540;9.268;2023-04-23T08:47:09;96704.72;;;18.34;58.60
4814;BME280;15375;48.540;9.268;2023-04-23T08:49:36;96672.47;;;18.05;59.06
4814;BME280;15375;48.540;9.268;2023-04-23T08:52:32;96710.75;;;18.53;59.84
4814;BME280;15375;48.540;9.268;2023-04-23T08:55:00;96695.28;;;18.86;59.02
4814;BME280;15375;48.540;9.268;2023-04-23T08:57:25;96699.75;;;19.35;58.53
4814;BME280;15375;48.540;9.268;2023-04-23T08:59:52;96693.28;;;19.44;58.34
4814;BME280;15375;48.540;9.268;2023-04-23T09:02:20;96696.81;;;19.76;56.23
4814;BME280;15375;48.540;9.268;2023-04-23T09:04:46;96703.34;;;20.20;54.37
4814;BME280;15375;48.540;9.268;2023-04-23T09:07:13;96689.63;;;20.48;57.11
4814;BME280;15375;48.540;9.268;2023-04-23T09:09:41;96693.84;;;19.48;53.42
4814;BME280;15375;48.540;9.268;2023-04-23T09:12:07;96702.41;;;19.24;55.96
4814;BME280;15375;48.540;9.268;2023-04-23T09:14:34;96683.00;;;19.44;58.31
4814;BME280;15375;48.540;9.268;2023-04-23T09:17:03;96676.28;;;19.56;56.41
4814;BME280;15375;48.540;9.268;2023-04-23T09:19:29;96660.75;;;19.02;53.59
4814;BME280;15375;48.540;9.268;2023-04-23T09:21:56;96686.44;;;18.57;55.67
4814;BME280;15375;48.540;9.268;2023-04-23T09:24:23;96676.84;;;18.52;56.09
4814;BME280;15375;48.540;9.268;2023-04-23T09:26:50;96657.44;;;18.46;56.52
4814;BME280;15375;48.540;9.268;2023-04-23T09:29:20;96649.81;;;19.13;56.07
4814;BME280;15375;48.540;9.268;2023-04-23T09:31:50;96639.38;;;19.34;55.79
4814;BME280;15375;48.540;9.268;2023-04-23T09:34:20;96636.47;;;19.85;55.61
4814;BME280;15375;48.540;9.268;2023-04-23T09:36:48;96619.31;;;20.23;51.93
4814;BME280;15375;48.540;9.268;2023-04-23T09:39:18;96642.59;;;20.70;49.99
4814;BME280;15375;48.540;9.268;2023-04-23T09:41:44;96653.88;;;19.97;51.06
4814;BME280;15375;48.540;9.268;2023-04-23T09:44:20;96639.25;;;19.85;51.49
4814;BME280;15375;48.540;9.268;2023-04-23T09:46:50;96631.50;;;17.98;55.14
4814;BME280;15375;48.540;9.268;2023-04-23T09:49:16;96678.59;;;17.10;59.29
4814;BME280;15375;48.540;9.268;2023-04-23T09:51:43;96639.06;;;17.63;58.24
4814;BME280;15375;48.540;9.268;2023-04-23T09:54:15;96660.38;;;16.98;58.75
4814;BME280;15375;48.540;9.268;2023-04-23T09:56:42;96669.44;;;17.83;59.99
4814;BME280;15375;48.540;9.268;2023-04-23T09:59:25;96660.34;;;18.37;58.85
4814;BME280;15375;48.540;9.268;2023-04-23T10:01:51;96645.44;;;18.75;57.00
4814;BME280;15375;48.540;9.268;2023-04-23T10:04:21;96643.31;;;19.22;56.54
4814;BME280;15375;48.540;9.268;2023-04-23T10:06:58;96603.19;;;19.32;58.11
4814;BME280;15375;48.540;9.268;2023-04-23T10:09:25;96606.00;;;19.80;54.40
4814;BME280;15375;48.540;9.268;2023-04-23T10:11:51;96613.31;;;19.83;52.87
4814;BME280;15375;48.540;9.268;2023-04-23T10:14:19;96605.91;;;20.11;51.81
4814;BME280;15375;48.540;9.268;2023-04-23T10:16:46;96559.59;;;19.52;51.75
4814;BME280;15375;48.540;9.268;2023-04-23T10:19:14;96601.69;;;19.31;54.01
4814;BME280;15375;48.540;9.268;2023-04-23T10:21:43;96580.47;;;19.53;52.90
4814;BME280;15375;48.540;9.268;2023-04-23T10:24:12;96592.72;;;19.84;52.36
4814;BME280;15375;48.540;9.268;2023-04-23T10:26:41;96577.25;;;20.25;50.57
4814;BME280;15375;48.540;9.268;2023-04-23T10:29:08;96582.19;;;19.99;54.53
4814;BME280;15375;48.540;9.268;2023-04-23T10:31:38;96586.00;;;19.53;53.17
4814;BME280;15375;48.540;9.268;2023-04-23T10:34:04;96584.13;;;19.82;51.60
4814;BME280;15375;48.540;9.268;2023-04-23T10:36:32;96584.97;;;19.45;53.09
4814;BME280;15375;48.540;9.268;2023-04-23T10:38:58;96553.84;;;19.56;52.83
4814;BME280;15375;48.540;9.268;2023-04-23T10:41:34;96545.88;;;19.74;52.51
4814;BME280;15375;48.540;9.268;2023-04-23T10:44:02;96548.81;;;19.60;51.97
4814;BME280;15375;48.540;9.268;2023-04-23T10:46:31;96529.53;;;19.82;53.09
4814;BME280;15375;48.540;9.268;2023-04-23T10:49:13;96548.31;;;20.26;52.94
4814;BME280;15375;48.540;9.268;2023-04-23T10:52:02;96568.50;;;20.43;51.89
4814;BME280;15375;48.540;9.268;2023-04-23T10:54:31;96512.28;;;19.45;52.34
4814;BME280;15375;48.540;9.268;2023-04-23T10:56:59;96556.03;;;19.46;53.81
4814;BME280;15375;48.540;9.268;2023-04-23T10:59:26;96564.03;;;19.02;54.33
4814;BME280;15375;48.540;9.268;2023-04-23T11:01:55;96552.50;;;19.40;54.43
4814;BME280;15375;48.540;9.268;2023-04-23T11:04:28;96542.59;;;19.70;53.82
4814;BME280;15375;48.540;9.268;2023-04-23T11:06:55;96534.69;;;19.52;53.51
4814;BME280;15375;48.540;9.268;2023-04-23T11:09:35;96510.88;;;19.71;53.11
4814;BME280;15375;48.540;9.268;2023-04-23T11:12:02;96550.88;;;20.41;52.08
4814;BME280;15375;48.540;9.268;2023-04-23T11:14:41;96535.47;;;20.23;52.51
4814;BME280;15375;48.540;9.268;2023-04-23T11:17:10;96527.94;;;20.40;52.40
4814;BME280;15375;48.540;9.268;2023-04-23T11:20:03;96537.00;;;20.29;53.27
4814;BME280;15375;48.540;9.268;2023-04-23T11:22:22;96522.44;;;20.57;53.28
4814;BME280;15375;48.540;9.268;2023-04-23T11:24:48;96507.44;;;19.93;52.49
4814;BME280;15375;48.540;9.268;2023-04-23T11:27:15;96510.09;;;19.60;50.65
4814;BME280;15375;48.540;9.268;2023-04-23T11:29:43;96522.31;;;19.37;50.75
4814;BME280;15375;48.540;9.268;2023-04-23T11:32:10;96525.63;;;19.09;52.54
4814;BME280;15375;48.540;9.268;2023-04-23T11:34:44;96509.78;;;19.47;53.49
4814;BME280;15375;48.540;9.268;2023-04-23T11:37:11;96516.75;;;19.90;52.37
4814;BME280;15375;48.540;9.268;2023-04-23T11:39:37;96501.63;;;19.80;52.85
4814;BME280;15375;48.540;9.268;2023-04-23T11:42:03;96501.84;;;19.77;53.70
4814;BME280;15375;48.540;9.268;2023-04-23T11:44:30;96512.31;;;19.50;52.89
4814;BME280;15375;48.540;9.268;2023-04-23T11:46:59;96491.78;;;19.68;52.35
4814;BME280;15375;48.540;9.268;2023-04-23T11:49:25;96494.06;;;19.81;51.39
4814;BME280;15375;48.540;9.268;2023-04-23T11:51:50;96479.31;;;20.22;51.16
4814;BME280;15375;48.540;9.268;2023-04-23T11:54:16;96474.06;;;20.30;50.80
4814;BME280;15375;48.540;9.268;2023-04-23T11:56:43;96480.63;;;20.49;51.31
4814;BME280;15375;48.540;9.268;2023-04-23T11:59:08;96489.38;;;20.97;52.90
4814;BME280;15375;48.540;9.268;2023-04-23T12:01:44;96477.31;;;20.78;49.73
4814;BME280;15375;48.540;9.268;2023-04-23T12:04:14;96477.59;;;20.30;50.37
4814;BME280;15375;48.540;9.268;2023-04-23T12:06:43;96461.19;;;20.10;50.81
4814;BME280;15375;48.540;9.268;2023-04-23T12:09:09;96451.84;;;19.97;50.59
4814;BME280;15375;48.540;9.268;2023-04-23T12:11:36;96457.66;;;20.10;50.96
4814;BME280;15375;48.540;9.268;2023-04-23T12:14:02;96441.81;;;20.21;50.50
4814;BME280;15375;48.540;9.268;2023-04-23T12:16:53;96451.16;;;20.29;50.03
4814;BME280;15375;48.540;9.268;2023-04-23T12:19:29;96445.56;;;20.07;49.78
4814;BME280;15375;48.540;9.268;2023-04-23T12:22:05;96439.28;;;20.18;50.00
4814;BME280;15375;48.540;9.268;2023-04-23T12:24:46;96435.28;;;20.63;49.93
4814;BME280;15375;48.540;9.268;2023-04-23T12:27:18;96440.78;;;20.96;51.04
4814;BME280;15375;48.540;9.268;2023-04-23T12:29:45;96417.88;;;21.53;48.60
4814;BME280;15375;48.540;9.268;2023-04-23T12:32:12;96425.16;;;22.08;49.06
4814;BME280;15375;48.540;9.268;2023-04-23T12:34:54;96416.38;;;22.64;48.43
4814;BME280;15375;48.540;9.268;2023-04-23T12:37:29;96406.56;;;22.87;46.43
4814;BME280;15375;48.540;9.268;2023-04-23T12:39:55;96403.50;;;22.01;46.38
4814;BME280;15375;48.540;9.268;2023-04-23T12:42:23;96403.88;;;22.16;49.53
4814;BME280;15375;48.540;9.268;2023-04-23T12:44:49;96408.88;;;21.88;50.34
4814;BME280;15375;48.540;9.268;2023-04-23T12:47:15;96418.28;;;21.74;49.28
4814;BME280;15375;48.540;9.268;2023-04-23T12:49:44;96400.06;;;21.84;47.58
4814;BME280;15375;48.540;9.268;2023-04-23T12:52:10;96408.38;;;21.90;49.11
4814;BME280;15375;48.540;9.268;2023-04-23T12:54:38;96415.06;;;21.65;47.23
4814;BME280;15375;48.540;9.268;2023-04-23T12:57:09;96406.22;;;20.92;47.38
4814;BME280;15375;48.540;9.268;2023-04-23T12:59:35;96398.16;;;21.11;48.06
4814;BME280;15375;48.540;9.268;2023-04-23T13:02:00;96368.19;;;21.55;46.83
4814;BME280;15375;48.540;9.268;2023-04-23T13:04:30;96390.56;;;22.09;51.16
4814;BME280;15375;48.540;9.268;2023-04-23T13:06:55;96382.47;;;22.11;47.11